Terminal Aerodrome Forecast
Issued by NWS Cleveland, OH

Home | Current Version | Previous Version | Graphics & Text | Print | Product List | Glossary On
Versions: 1 2 3 4 5 6 7 8 9 10 11 12 13 14 15 16 17 18 19 20
000
FTUS41 KCLE 311100
TAFMFD
TAF
KMFD 311124Z 3112/0112 20012G20KT P6SM VCSH SCT050 BKN100
      WS015/23050KT
     FM311500 28015G22KT P6SM SCT015 OVC045
      TEMPO 3116/3120 OVC015
     FM312000 35008KT P6SM SCT025 OVC045
     FM010000 36005KT P6SM SCT045 BKN120
     FM010400 VRB03KT P6SM BKN120=

USA.gov is the U.S. government's official web portal to all federal, state and local government web resources and services.